sensor_id;sensor_type;location;lat;lon;timestamp;pressure;altitude;pressure_sealevel;temperature;humidity
55301;BME280;58302;51.446;-2.000;2023-04-24T00:01:50;99940.63;;;4.06;100.00
55301;BME280;58302;51.446;-2.000;2023-04-24T00:04:16;99939.38;;;3.96;100.00
55301;BME280;58302;51.446;-2.000;2023-04-24T00:06:43;99948.94;;;3.92;100.00
55301;BME280;58302;51.446;-2.000;2023-04-24T00:09:09;99948.25;;;3.74;100.00
55301;BME280;58302;51.446;-2.000;2023-04-24T00:11:36;99953.25;;;3.58;100.00
55301;BME280;58302;51.446;-2.000;2023-04-24T00:14:02;99951.25;;;3.42;100.00
55301;BME280;58302;51.446;-2.000;2023-04-24T00:16:28;99954.94;;;3.29;100.00
55301;BME280;58302;51.446;-2.000;2023-04-24T00:18:54;99960.19;;;3.24;100.00
55301;BME280;58302;51.446;-2.000;2023-04-24T00:21:20;99964.72;;;3.24;100.00
55301;BME280;58302;51.446;-2.000;2023-04-24T00:23:47;99957.28;;;3.26;100.00
55301;BME280;58302;51.446;-2.000;2023-04-24T00:26:13;99962.28;;;3.22;100.00
55301;BME280;58302;51.446;-2.000;2023-04-24T00:28:39;99958.25;;;3.13;100.00
55301;BME280;58302;51.446;-2.000;2023-04-24T00:31:05;99960.22;;;3.06;100.00
55301;BME280;58302;51.446;-2.000;2023-04-24T00:33:31;99965.69;;;2.99;100.00
55301;BME280;58302;51.446;-2.000;2023-04-24T00:35:57;99970.38;;;3.04;100.00
55301;BME280;58302;51.446;-2.000;2023-04-24T00:38:23;99972.19;;;3.22;100.00
55301;BME280;58302;51.446;-2.000;2023-04-24T00:40:49;99970.16;;;3.35;100.00
55301;BME280;58302;51.446;-2.000;2023-04-24T00:43:16;99966.09;;;3.56;100.00
55301;BME280;58302;51.446;-2.000;2023-04-24T00:45:42;99978.63;;;3.86;100.00
55301;BME280;58302;51.446;-2.000;2023-04-24T00:48:09;99975.25;;;3.90;100.00
55301;BME280;58302;51.446;-2.000;2023-04-24T00:50:38;99975.81;;;4.04;100.00
55301;BME280;58302;51.446;-2.000;2023-04-24T00:53:04;99977.56;;;4.10;100.00
55301;BME280;58302;51.446;-2.000;2023-04-24T00:55:30;99985.19;;;4.25;100.00
55301;BME280;58302;51.446;-2.000;2023-04-24T00:57:57;99989.50;;;4.26;100.00
55301;BME280;58302;51.446;-2.000;2023-04-24T01:00:24;99986.22;;;4.24;100.00
55301;BME280;58302;51.446;-2.000;2023-04-24T01:02:50;99985.41;;;4.23;100.00
55301;BME280;58302;51.446;-2.000;2023-04-24T01:05:17;99994.53;;;4.34;100.00
55301;BME280;58302;51.446;-2.000;2023-04-24T01:07:45;99988.53;;;4.44;100.00
55301;BME280;58302;51.446;-2.000;2023-04-24T01:10:15;99993.91;;;4.44;100.00
55301;BME280;58302;51.446;-2.000;2023-04-24T01:12:43;100001.28;;;4.48;100.00
55301;BME280;58302;51.446;-2.000;2023-04-24T01:15:09;99996.72;;;4.49;100.00
55301;BME280;58302;51.446;-2.000;2023-04-24T01:17:35;100004.34;;;4.52;100.00
55301;BME280;58302;51.446;-2.000;2023-04-24T01:20:01;100004.56;;;4.51;100.00
55301;BME280;58302;51.446;-2.000;2023-04-24T01:22:33;100002.81;;;4.44;100.00
55301;BME280;58302;51.446;-2.000;2023-04-24T01:25:00;100003.75;;;4.38;100.00
55301;BME280;58302;51.446;-2.000;2023-04-24T01:27:26;99998.75;;;4.30;100.00
55301;BME280;58302;51.446;-2.000;2023-04-24T01:29:52;100002.94;;;4.26;100.00
55301;BME280;58302;51.446;-2.000;2023-04-24T01:32:19;100006.81;;;4.18;100.00
55301;BME280;58302;51.446;-2.000;2023-04-24T01:34:46;100001.91;;;4.15;100.00
55301;BME280;58302;51.446;-2.000;2023-04-24T01:37:12;100003.44;;;4.23;100.00
55301;BME280;58302;51.446;-2.000;2023-04-24T01:39:38;100000.94;;;4.21;100.00
55301;BME280;58302;51.446;-2.000;2023-04-24T01:42:05;100006.56;;;4.20;100.00
55301;BME280;58302;51.446;-2.000;2023-04-24T01:44:31;100002.94;;;4.14;100.00
55301;BME280;58302;51.446;-2.000;2023-04-24T01:46:57;100004.47;;;4.22;100.00
55301;BME280;58302;51.446;-2.000;2023-04-24T01:49:23;100001.88;;;4.27;100.00
55301;BME280;58302;51.446;-2.000;2023-04-24T01:51:49;100003.19;;;4.25;100.00
55301;BME280;58302;51.446;-2.000;2023-04-24T01:54:15;100004.47;;;4.22;100.00
55301;BME280;58302;51.446;-2.000;2023-04-24T01:56:42;100009.28;;;4.20;100.00
55301;BME280;58302;51.446;-2.000;2023-04-24T01:59:12;100010.91;;;4.21;100.00
55301;BME280;58302;51.446;-2.000;2023-04-24T02:01:41;100020.59;;;4.22;100.00
55301;BME280;58302;51.446;-2.000;2023-04-24T02:04:07;100018.03;;;4.27;100.00
55301;BME280;58302;51.446;-2.000;2023-04-24T02:06:33;100012.66;;;4.27;100.00
55301;BME280;58302;51.446;-2.000;2023-04-24T02:08:59;100009.75;;;4.29;100.00
55301;BME280;58302;51.446;-2.000;2023-04-24T02:11:26;100018.50;;;4.24;100.00
55301;BME280;58302;51.446;-2.000;2023-04-24T02:13:52;100011.97;;;4.20;100.00
55301;BME280;58302;51.446;-2.000;2023-04-24T02:16:18;100011.03;;;4.14;100.00
55301;BME280;58302;51.446;-2.000;2023-04-24T02:18:45;100022.47;;;4.10;100.00
55301;BME280;58302;51.446;-2.000;2023-04-24T02:21:11;100016.28;;;3.97;100.00
55301;BME280;58302;51.446;-2.000;2023-04-24T02:23:37;100028.09;;;3.96;100.00
55301;BME280;58302;51.446;-2.000;2023-04-24T02:26:03;100022.84;;;4.02;100.00
55301;BME280;58302;51.446;-2.000;2023-04-24T02:28:28;100030.41;;;4.05;100.00
55301;BME280;58302;51.446;-2.000;2023-04-24T02:30:55;100034.53;;;4.07;100.00
55301;BME280;58302;51.446;-2.000;2023-04-24T02:33:21;100031.47;;;4.15;100.00
55301;BME280;58302;51.446;-2.000;2023-04-24T02:35:47;100034.97;;;4.16;100.00
55301;BME280;58302;51.446;-2.000;2023-04-24T02:38:12;100038.28;;;4.18;100.00
55301;BME280;58302;51.446;-2.000;2023-04-24T02:40:38;100042.47;;;4.14;100.00
55301;BME280;58302;51.446;-2.000;2023-04-24T02:43:04;100046.31;;;4.06;100.00
55301;BME280;58302;51.446;-2.000;2023-04-24T02:45:30;100052.16;;;3.91;100.00
55301;BME280;58302;51.446;-2.000;2023-04-24T02:47:56;100057.28;;;3.81;100.00
55301;BME280;58302;51.446;-2.000;2023-04-24T02:50:22;100062.00;;;3.67;100.00
55301;BME280;58302;51.446;-2.000;2023-04-24T02:52:48;100062.22;;;3.54;100.00
55301;BME280;58302;51.446;-2.000;2023-04-24T02:55:14;100061.25;;;3.49;100.00
55301;BME280;58302;51.446;-2.000;2023-04-24T02:57:40;100066.63;;;3.49;100.00
55301;BME280;58302;51.446;-2.000;2023-04-24T03:00:06;100076.34;;;3.50;100.00
55301;BME280;58302;51.446;-2.000;2023-04-24T03:02:32;100067.59;;;3.54;100.00
55301;BME280;58302;51.446;-2.000;2023-04-24T03:04:59;100076.34;;;3.50;100.00
55301;BME280;58302;51.446;-2.000;2023-04-24T03:07:25;100086.59;;;3.41;100.00
55301;BME280;58302;51.446;-2.000;2023-04-24T03:09:51;100085.84;;;3.34;100.00
55301;BME280;58302;51.446;-2.000;2023-04-24T03:12:17;100078.03;;;3.32;100.00
55301;BME280;58302;51.446;-2.000;2023-04-24T03:14:44;100078.16;;;3.37;100.00
55301;BME280;58302;51.446;-2.000;2023-04-24T03:17:10;100084.44;;;3.31;100.00
55301;BME280;58302;51.446;-2.000;2023-04-24T03:19:36;100091.78;;;3.24;100.00
55301;BME280;58302;51.446;-2.000;2023-04-24T03:22:02;100082.13;;;3.16;100.00
55301;BME280;58302;51.446;-2.000;2023-04-24T03:24:29;100084.09;;;3.09;100.00
55301;BME280;58302;51.446;-2.000;2023-04-24T03:26:55;100075.38;;;2.96;100.00
55301;BME280;58302;51.446;-2.000;2023-04-24T03:29:22;100080.66;;;2.84;100.00
55301;BME280;58302;51.446;-2.000;2023-04-24T03:31:48;100083.28;;;2.72;100.00
55301;BME280;58302;51.446;-2.000;2023-04-24T03:34:14;100083.19;;;2.60;100.00
55301;BME280;58302;51.446;-2.000;2023-04-24T03:36:40;100082.06;;;2.50;100.00
55301;BME280;58302;51.446;-2.000;2023-04-24T03:39:06;100088.31;;;2.44;100.00
55301;BME280;58302;51.446;-2.000;2023-04-24T03:41:32;100076.59;;;2.38;100.00
55301;BME280;58302;51.446;-2.000;2023-04-24T03:43:58;100081.81;;;2.33;100.00
55301;BME280;58302;51.446;-2.000;2023-04-24T03:46:24;100069.53;;;2.25;100.00
55301;BME280;58302;51.446;-2.000;2023-04-24T03:48:50;100070.19;;;2.14;100.00
55301;BME280;58302;51.446;-2.000;2023-04-24T03:51:16;100069.91;;;2.04;100.00
55301;BME280;58302;51.446;-2.000;2023-04-24T03:53:42;100072.84;;;1.96;100.00
55301;BME280;58302;51.446;-2.000;2023-04-24T03:56:07;100075.19;;;1.85;100.00
55301;BME280;58302;51.446;-2.000;2023-04-24T03:58:33;100092.06;;;1.86;100.00
55301;BME280;58302;51.446;-2.000;2023-04-24T04:00:59;100085.69;;;1.87;100.00
55301;BME280;58302;51.446;-2.000;2023-04-24T04:03:25;100090.22;;;1.87;100.00
55301;BME280;58302;51.446;-2.000;2023-04-24T04:05:51;100082.09;;;2.00;100.00
55301;BME280;58302;51.446;-2.000;2023-04-24T04:08:17;100088.91;;;1.96;100.00
55301;BME280;58302;51.446;-2.000;2023-04-24T04:10:43;100088.75;;;1.91;100.00
55301;BME280;58302;51.446;-2.000;2023-04-24T04:13:09;100091.25;;;1.85;100.00
55301;BME280;58302;51.446;-2.000;2023-04-24T04:15:35;100091.94;;;1.74;100.00
55301;BME280;58302;51.446;-2.000;2023-04-24T04:18:01;100095.94;;;1.65;100.00
55301;BME280;58302;51.446;-2.000;2023-04-24T04:20:27;100098.44;;;1.60;100.00
55301;BME280;58302;51.446;-2.000;2023-04-24T04:22:53;100088.41;;;1.49;100.00
55301;BME280;58302;51.446;-2.000;2023-04-24T04:25:19;100095.66;;;1.42;100.00
55301;BME280;58302;51.446;-2.000;2023-04-24T04:27:46;100080.84;;;1.39;100.00
55301;BME280;58302;51.446;-2.000;2023-04-24T04:30:13;100082.06;;;1.37;100.00
55301;BME280;58302;51.446;-2.000;2023-04-24T04:32:39;100090.97;;;1.30;100.00
55301;BME280;58302;51.446;-2.000;2023-04-24T04:35:06;100098.00;;;1.25;100.00
55301;BME280;58302;51.446;-2.000;2023-04-24T04:37:32;100091.44;;;1.14;100.00
55301;BME280;58302;51.446;-2.000;2023-04-24T04:40:02;100096.63;;;1.09;100.00
55301;BME280;58302;51.446;-2.000;2023-04-24T04:42:37;100099.72;;;1.06;100.00
55301;BME280;58302;51.446;-2.000;2023-04-24T04:45:09;100088.63;;;1.02;100.00
55301;BME280;58302;51.446;-2.000;2023-04-24T04:47:35;100094.59;;;1.04;100.00
55301;BME280;58302;51.446;-2.000;2023-04-24T04:50:01;100103.03;;;1.01;100.00
55301;BME280;58302;51.446;-2.000;2023-04-24T04:52:27;100103.25;;;0.93;100.00
55301;BME280;58302;51.446;-2.000;2023-04-24T04:54:53;100109.03;;;0.90;100.00
55301;BME280;58302;51.446;-2.000;2023-04-24T04:57:19;100103.69;;;0.90;100.00
55301;BME280;58302;51.446;-2.000;2023-04-24T04:59:46;100106.16;;;0.92;100.00
55301;BME280;58302;51.446;-2.000;2023-04-24T05:02:12;100106.97;;;0.92;100.00
55301;BME280;58302;51.446;-2.000;2023-04-24T05:04:38;100099.16;;;0.91;100.00
55301;BME280;58302;51.446;-2.000;2023-04-24T05:07:04;100103.25;;;0.93;100.00
55301;BME280;58302;51.446;-2.000;2023-04-24T05:09:30;100105.50;;;1.03;100.00
55301;BME280;58302;51.446;-2.000;2023-04-24T05:11:56;100114.34;;;1.10;100.00
55301;BME280;58302;51.446;-2.000;2023-04-24T05:14:22;100119.47;;;1.12;100.00
55301;BME280;58302;51.446;-2.000;2023-04-24T05:16:48;100116.16;;;1.10;100.00
55301;BME280;58302;51.446;-2.000;2023-04-24T05:19:13;100120.88;;;1.14;100.00
55301;BME280;58302;51.446;-2.000;2023-04-24T05:21:40;100127.25;;;1.20;100.00
55301;BME280;58302;51.446;-2.000;2023-04-24T05:24:06;100118.41;;;1.19;100.00
55301;BME280;58302;51.446;-2.000;2023-04-24T05:26:32;100125.56;;;1.25;100.00
55301;BME280;58302;51.446;-2.000;2023-04-24T05:28:58;100129.06;;;1.33;100.00
55301;BME280;58302;51.446;-2.000;2023-04-24T05:31:24;100137.44;;;1.43;100.00
55301;BME280;58302;51.446;-2.000;2023-04-24T05:33:51;100143.16;;;1.53;100.00
55301;BME280;58302;51.446;-2.000;2023-04-24T05:36:17;100154.81;;;1.72;100.00
55301;BME280;58302;51.446;-2.000;2023-04-24T05:38:42;100163.78;;;1.91;100.00
55301;BME280;58302;51.446;-2.000;2023-04-24T05:41:08;100164.41;;;2.18;100.00
55301;BME280;58302;51.446;-2.000;2023-04-24T05:43:34;100173.84;;;2.52;100.00
55301;BME280;58302;51.446;-2.000;2023-04-24T05:46:00;100181.44;;;2.80;100.00
55301;BME280;58302;51.446;-2.000;2023-04-24T05:48:26;100177.91;;;3.04;100.00
55301;BME280;58302;51.446;-2.000;2023-04-24T05:50:52;100173.50;;;3.28;100.00
55301;BME280;58302;51.446;-2.000;2023-04-24T05:53:18;100183.97;;;3.36;100.00
55301;BME280;58302;51.446;-2.000;2023-04-24T05:55:45;100180.81;;;3.39;100.00
55301;BME280;58302;51.446;-2.000;2023-04-24T05:58:11;100187.91;;;3.34;100.00
55301;BME280;58302;51.446;-2.000;2023-04-24T06:00:38;100193.34;;;3.27;100.00
55301;BME280;58302;51.446;-2.000;2023-04-24T06:03:05;100210.34;;;3.21;100.00
55301;BME280;58302;51.446;-2.000;2023-04-24T06:05:31;100209.38;;;3.15;100.00
55301;BME280;58302;51.446;-2.000;2023-04-24T06:07:57;100212.31;;;3.14;100.00
55301;BME280;58302;51.446;-2.000;2023-04-24T06:10:23;100220.13;;;3.15;100.00
55301;BME280;58302;51.446;-2.000;2023-04-24T06:12:49;100224.84;;;3.20;100.00
55301;BME280;58302;51.446;-2.000;2023-04-24T06:15:15;100222.31;;;3.25;100.00
55301;BME280;58302;51.446;-2.000;2023-04-24T06:17:41;100225.34;;;3.29;100.00
55301;BME280;58302;51.446;-2.000;2023-04-24T06:20:07;100228.56;;;3.37;100.00
55301;BME280;58302;51.446;-2.000;2023-04-24T06:22:33;100227.25;;;3.47;100.00
55301;BME280;58302;51.446;-2.000;2023-04-24T06:25:01;100230.81;;;3.59;100.00
55301;BME280;58302;51.446;-2.000;2023-04-24T06:27:27;100246.41;;;3.68;100.00
55301;BME280;58302;51.446;-2.000;2023-04-24T06:29:53;100248.69;;;3.83;100.00
55301;BME280;58302;51.446;-2.000;2023-04-24T06:32:24;100246.88;;;3.95;100.00
55301;BME280;58302;51.446;-2.000;2023-04-24T06:34:53;100259.09;;;4.10;100.00
55301;BME280;58302;51.446;-2.000;2023-04-24T06:37:20;100262.81;;;4.27;100.00
55301;BME280;58302;51.446;-2.000;2023-04-24T06:39:46;100265.31;;;4.40;100.00
55301;BME280;58302;51.446;-2.000;2023-04-24T06:42:12;100267.22;;;4.52;100.00
55301;BME280;58302;51.446;-2.000;2023-04-24T06:44:38;100263.75;;;4.63;100.00
55301;BME280;58302;51.446;-2.000;2023-04-24T06:47:07;100265.91;;;5.08;100.00
55301;BME280;58302;51.446;-2.000;2023-04-24T06:49:38;100279.66;;;5.93;100.00
55301;BME280;58302;51.446;-2.000;2023-04-24T06:52:04;100286.91;;;6.62;100.00
55301;BME280;58302;51.446;-2.000;2023-04-24T06:54:31;100291.03;;;7.15;100.00
55301;BME280;58302;51.446;-2.000;2023-04-24T06:56:57;100307.81;;;7.72;100.00
55301;BME280;58302;51.446;-2.000;2023-04-24T06:59:24;100315.47;;;7.97;100.00
55301;BME280;58302;51.446;-2.000;2023-04-24T07:01:50;100324.16;;;8.43;100.00
55301;BME280;58302;51.446;-2.000;2023-04-24T07:04:17;100335.09;;;8.80;100.00
55301;BME280;58302;51.446;-2.000;2023-04-24T07:06:48;100345.47;;;9.20;100.00
55301;BME280;58302;51.446;-2.000;2023-04-24T07:09:15;100367.03;;;9.74;100.00
55301;BME280;58302;51.446;-2.000;2023-04-24T07:11:47;100371.31;;;10.13;100.00
55301;BME280;58302;51.446;-2.000;2023-04-24T07:14:13;100369.31;;;10.45;100.00
55301;BME280;58302;51.446;-2.000;2023-04-24T07:16:39;100371.22;;;10.45;100.00
55301;BME280;58302;51.446;-2.000;2023-04-24T07:19:05;100350.53;;;10.28;100.00
55301;BME280;58302;51.446;-2.000;2023-04-24T07:21:31;100332.75;;;10.16;100.00
55301;BME280;58302;51.446;-2.000;2023-04-24T07:23:58;100285.91;;;10.46;100.00
55301;BME280;58302;51.446;-2.000;2023-04-24T07:26:25;100266.94;;;11.02;100.00
55301;BME280;58302;51.446;-2.000;2023-04-24T07:28:51;100260.38;;;11.39;100.00
55301;BME280;58302;51.446;-2.000;2023-04-24T07:31:17;100241.31;;;11.49;100.00
55301;BME280;58302;51.446;-2.000;2023-04-24T07:33:43;100227.53;;;11.04;100.00
55301;BME280;58302;51.446;-2.000;2023-04-24T07:36:11;100211.22;;;10.79;100.00
55301;BME280;58302;51.446;-2.000;2023-04-24T07:38:42;100188.41;;;10.49;100.00
55301;BME280;58302;51.446;-2.000;2023-04-24T07:41:08;100171.50;;;10.22;100.00
55301;BME280;58302;51.446;-2.000;2023-04-24T07:43:35;100152.72;;;10.00;100.00
55301;BME280;58302;51.446;-2.000;2023-04-24T07:46:01;100129.34;;;9.79;100.00
55301;BME280;58302;51.446;-2.000;2023-04-24T07:48:27;100105.69;;;9.69;100.00
55301;BME280;58302;51.446;-2.000;2023-04-24T07:50:53;100092.66;;;9.71;100.00
55301;BME280;58302;51.446;-2.000;2023-04-24T07:53:19;100081.56;;;9.88;100.00
55301;BME280;58302;51.446;-2.000;2023-04-24T07:55:46;100060.16;;;10.12;100.00
55301;BME280;58302;51.446;-2.000;2023-04-24T07:58:12;100019.41;;;10.42;100.00
55301;BME280;58302;51.446;-2.000;2023-04-24T08:00:38;99991.13;;;10.48;100.00
55301;BME280;58302;51.446;-2.000;2023-04-24T08:03:04;99968.59;;;10.43;100.00
55301;BME280;58302;51.446;-2.000;2023-04-24T08:05:30;99959.13;;;10.35;100.00
55301;BME280;58302;51.446;-2.000;2023-04-24T08:07:56;99962.94;;;10.34;100.00
55301;BME280;58302;51.446;-2.000;2023-04-24T08:10:22;99965.66;;;10.24;100.00
55301;BME280;58302;51.446;-2.000;2023-04-24T08:12:49;99967.84;;;10.07;100.00
55301;BME280;58302;51.446;-2.000;2023-04-24T08:15:15;99981.69;;;9.95;100.00
55301;BME280;58302;51.446;-2.000;2023-04-24T08:17:41;99987.13;;;9.90;100.00
55301;BME280;58302;51.446;-2.000;2023-04-24T08:20:08;99995.28;;;9.90;100.00
55301;BME280;58302;51.446;-2.000;2023-04-24T08:22:35;99999.31;;;9.82;100.00
55301;BME280;58302;51.446;-2.000;2023-04-24T08:25:02;99995.53;;;9.78;100.00
55301;BME280;58302;51.446;-2.000;2023-04-24T08:27:28;100008.84;;;9.80;100.00
55301;BME280;58302;51.446;-2.000;2023-04-24T08:29:54;100012.06;;;9.76;100.00
55301;BME280;58302;51.446;-2.000;2023-04-24T08:32:20;100013.44;;;9.84;100.00
55301;BME280;58302;51.446;-2.000;2023-04-24T08:34:46;100019.13;;;9.98;100.00
55301;BME280;58302;51.446;-2.000;2023-04-24T08:37:12;100014.53;;;10.14;100.00
55301;BME280;58302;51.446;-2.000;2023-04-24T08:39:38;100010.44;;;10.26;100.00
55301;BME280;58302;51.446;-2.000;2023-04-24T08:42:05;100015.63;;;10.08;100.00
55301;BME280;58302;51.446;-2.000;2023-04-24T08:44:34;100015.34;;;9.94;100.00
55301;BME280;58302;51.446;-2.000;2023-04-24T08:47:02;100021.31;;;9.86;100.00
55301;BME280;58302;51.446;-2.000;2023-04-24T08:49:28;100027.03;;;9.79;100.00
55301;BME280;58302;51.446;-2.000;2023-04-24T08:51:55;100027.25;;;9.77;100.00
55301;BME280;58302;51.446;-2.000;2023-04-24T08:54:21;100029.47;;;9.86;100.00
55301;BME280;58302;51.446;-2.000;2023-04-24T08:56:48;100028.09;;;10.14;100.00
55301;BME280;58302;51.446;-2.000;2023-04-24T08:59:15;100024.28;;;10.45;100.00
55301;BME280;58302;51.446;-2.000;2023-04-24T09:01:41;100013.44;;;11.15;100.00
55301;BME280;58302;51.446;-2.000;2023-04-24T09:04:09;100005.38;;;12.18;100.00
55301;BME280;58302;51.446;-2.000;2023-04-24T09:06:36;99984.09;;;12.97;100.00
55301;BME280;58302;51.446;-2.000;2023-04-24T09:09:03;99986.22;;;13.42;100.00
55301;BME280;58302;51.446;-2.000;2023-04-24T09:11:32;99980.06;;;14.02;100.00
55301;BME280;58302;51.446;-2.000;2023-04-24T09:13:59;99983.16;;;14.28;100.00
55301;BME280;58302;51.446;-2.000;2023-04-24T09:16:26;99979.16;;;14.53;100.00
55301;BME280;58302;51.446;-2.000;2023-04-24T09:18:52;99978.28;;;15.35;100.00
55301;BME280;58302;51.446;-2.000;2023-04-24T09:21:21;99986.97;;;15.37;100.00
55301;BME280;58302;51.446;-2.000;2023-04-24T09:23:57;99986.50;;;15.58;100.00
55301;BME280;58302;51.446;-2.000;2023-04-24T09:26:24;99982.41;;;16.14;100.00
55301;BME280;58302;51.446;-2.000;2023-04-24T09:28:50;99985.94;;;15.83;100.00
55301;BME280;58302;51.446;-2.000;2023-04-24T09:31:18;99996.03;;;15.74;100.00
55301;BME280;58302;51.446;-2.000;2023-04-24T09:34:00;99998.06;;;16.13;100.00
55301;BME280;58302;51.446;-2.000;2023-04-24T09:36:38;99997.53;;;16.33;100.00
55301;BME280;58302;51.446;-2.000;2023-04-24T09:39:07;100008.44;;;16.25;100.00
55301;BME280;58302;51.446;-2.000;2023-04-24T09:41:51;100016.00;;;16.50;100.00
55301;BME280;58302;51.446;-2.000;2023-04-24T09:44:19;100024.66;;;16.35;100.00
55301;BME280;58302;51.446;-2.000;2023-04-24T09:46:54;100026.28;;;15.91;100.00
55301;BME280;58302;51.446;-2.000;2023-04-24T09:49:23;100041.25;;;15.21;100.00
55301;BME280;58302;51.446;-2.000;2023-04-24T09:51:50;100050.69;;;14.28;100.00
55301;BME280;58302;51.446;-2.000;2023-04-24T09:54:20;100044.72;;;13.36;100.00
55301;BME280;58302;51.446;-2.000;2023-04-24T09:56:48;100056.63;;;12.45;100.00
55301;BME280;58302;51.446;-2.000;2023-04-24T09:59:16;100056.63;;;11.81;100.00
55301;BME280;58302;51.446;-2.000;2023-04-24T10:01:42;100059.03;;;11.39;100.00
55301;BME280;58302;51.446;-2.000;2023-04-24T10:06:47;100075.75;;;11.12;100.00
55301;BME280;58302;51.446;-2.000;2023-04-24T10:09:16;100079.91;;;10.89;100.00
55301;BME280;58302;51.446;-2.000;2023-04-24T10:11:44;100084.28;;;10.69;100.00
55301;BME280;58302;51.446;-2.000;2023-04-24T10:14:14;100084.88;;;10.56;100.00
55301;BME280;58302;51.446;-2.000;2023-04-24T10:16:42;100082.16;;;10.41;100.00
55301;BME280;58302;51.446;-2.000;2023-04-24T10:19:08;100087.06;;;10.28;100.00
55301;BME280;58302;51.446;-2.000;2023-04-24T10:21:35;100092.47;;;10.18;100.00
55301;BME280;58302;51.446;-2.000;2023-04-24T10:24:04;100085.13;;;10.14;100.00
55301;BME280;58302;51.446;-2.000;2023-04-24T10:26:33;100093.81;;;10.21;100.00
55301;BME280;58302;51.446;-2.000;2023-04-24T10:29:00;100100.03;;;10.16;100.00
55301;BME280;58302;51.446;-2.000;2023-04-24T10:31:27;100092.44;;;10.13;100.00
55301;BME280;58302;51.446;-2.000;2023-04-24T10:33:56;100089.78;;;10.28;100.00
55301;BME280;58302;51.446;-2.000;2023-04-24T10:36:24;100082.66;;;10.63;100.00
55301;BME280;58302;51.446;-2.000;2023-04-24T10:38:52;100072.88;;;11.37;100.00
55301;BME280;58302;51.446;-2.000;2023-04-24T10:41:20;100063.50;;;12.08;100.00
55301;BME280;58302;51.446;-2.000;2023-04-24T10:44:06;100048.03;;;12.85;100.00
55301;BME280;58302;51.446;-2.000;2023-04-24T10:46:33;100042.34;;;13.30;100.00
55301;BME280;58302;51.446;-2.000;2023-04-24T10:49:03;100040.03;;;14.12;100.00
55301;BME280;58302;51.446;-2.000;2023-04-24T10:51:52;100030.16;;;14.44;100.00
55301;BME280;58302;51.446;-2.000;2023-04-24T10:54:36;100030.09;;;14.49;100.00
55301;BME280;58302;51.446;-2.000;2023-04-24T10:59:49;100024.44;;;14.13;100.00
55301;BME280;58302;51.446;-2.000;2023-04-24T11:02:17;100030.34;;;13.68;100.00
55301;BME280;58302;51.446;-2.000;2023-04-24T11:04:44;100029.88;;;13.42;100.00
55301;BME280;58302;51.446;-2.000;2023-04-24T11:07:11;100031.59;;;13.14;100.00
55301;BME280;58302;51.446;-2.000;2023-04-24T11:09:37;100039.44;;;12.73;100.00
55301;BME280;58302;51.446;-2.000;2023-04-24T11:12:08;100040.34;;;12.10;100.00
55301;BME280;58302;51.446;-2.000;2023-04-24T11:15:01;100043.41;;;11.59;100.00
55301;BME280;58302;51.446;-2.000;2023-04-24T11:17:35;100046.63;;;11.17;100.00
55301;BME280;58302;51.446;-2.000;2023-04-24T11:20:07;100051.66;;;10.79;100.00
55301;BME280;58302;51.446;-2.000;2023-04-24T11:22:38;100055.50;;;10.48;100.00
55301;BME280;58302;51.446;-2.000;2023-04-24T11:25:09;100068.28;;;10.17;100.00
55301;BME280;58302;51.446;-2.000;2023-04-24T11:27:44;100084.81;;;9.74;100.00
55301;BME280;58302;51.446;-2.000;2023-04-24T11:30:17;100093.28;;;9.15;100.00
55301;BME280;58302;51.446;-2.000;2023-04-24T11:32:47;100106.44;;;8.86;100.00
55301;BME280;58302;51.446;-2.000;2023-04-24T11:35:21;100117.03;;;8.51;100.00
55301;BME280;58302;51.446;-2.000;2023-04-24T11:37:52;100146.88;;;8.29;100.00
55301;BME280;58302;51.446;-2.000;2023-04-24T11:40:20;100168.97;;;8.15;100.00
55301;BME280;58302;51.446;-2.000;2023-04-24T11:42:47;100181.78;;;7.98;100.00
55301;BME280;58302;51.446;-2.000;2023-04-24T11:45:18;100197.28;;;7.81;100.00
55301;BME280;58302;51.446;-2.000;2023-04-24T11:47:45;100202.72;;;7.81;100.00
55301;BME280;58302;51.446;-2.000;2023-04-24T11:50:13;100207.31;;;7.85;100.00
55301;BME280;58302;51.446;-2.000;2023-04-24T11:52:45;100200.63;;;7.88;100.00
55301;BME280;58302;51.446;-2.000;2023-04-24T11:57:43;100199.56;;;8.16;100.00
55301;BME280;58302;51.446;-2.000;2023-04-24T12:00:21;100192.63;;;8.25;100.00
55301;BME280;58302;51.446;-2.000;2023-04-24T12:02:48;100190.84;;;8.36;100.00
55301;BME280;58302;51.446;-2.000;2023-04-24T12:05:26;100193.56;;;8.36;100.00
55301;BME280;58302;51.446;-2.000;2023-04-24T12:07:52;100203.66;;;8.45;100.00
55301;BME280;58302;51.446;-2.000;2023-04-24T12:10:23;100199.06;;;8.46;100.00
55301;BME280;58302;51.446;-2.000;2023-04-24T12:12:50;100198.53;;;8.49;100.00
55301;BME280;58302;51.446;-2.000;2023-04-24T12:15:18;100191.75;;;8.47;100.00
55301;BME280;58302;51.446;-2.000;2023-04-24T12:17:44;100192.53;;;8.42;100.00
55301;BME280;58302;51.446;-2.000;2023-04-24T12:20:11;100189.44;;;8.60;100.00
55301;BME280;58302;51.446;-2.000;2023-04-24T12:22:57;100180.69;;;8.85;100.00
55301;BME280;58302;51.446;-2.000;2023-04-24T12:25:26;100182.72;;;9.10;100.00
55301;BME280;58302;51.446;-2.000;2023-04-24T12:28:11;100170.25;;;9.09;100.00
55301;BME280;58302;51.446;-2.000;2023-04-24T12:30:43;100160.63;;;8.86;100.00
55301;BME280;58302;51.446;-2.000;2023-04-24T12:33:20;100166.06;;;8.86;100.00
55301;BME280;58302;51.446;-2.000;2023-04-24T12:35:48;100163.13;;;8.93;100.00
55301;BME280;58302;51.446;-2.000;2023-04-24T12:38:38;100147.47;;;9.05;100.00
55301;BME280;58302;51.446;-2.000;2023-04-24T12:41:12;100152.13;;;9.15;100.00
55301;BME280;58302;51.446;-2.000;2023-04-24T12:43:51;100159.50;;;9.24;100.00
55301;BME280;58302;51.446;-2.000;2023-04-24T12:46:17;100150.50;;;9.14;100.00
55301;BME280;58302;51.446;-2.000;2023-04-24T12:48:43;100145.81;;;8.99;100.00